sensor_id;sensor_type;location;lat;lon;timestamp;pressure;altitude;pressure_sealevel;temperature;humidity
4022;BME280;2025;48.260;16.432;2023-04-28T00:00:07;100270.78;;;4.60;72.04
4022;BME280;2025;48.260;16.432;2023-04-28T00:02:34;100276.81;;;4.49;72.78
4022;BME280;2025;48.260;16.432;2023-04-28T00:05:01;100267.09;;;4.40;73.14
4022;BME280;2025;48.260;16.432;2023-04-28T00:07:28;100264.25;;;4.32;73.13
4022;BME280;2025;48.260;16.432;2023-04-28T00:09:56;100265.78;;;4.23;73.90
4022;BME280;2025;48.260;16.432;2023-04-28T00:12:23;100259.47;;;4.14;73.97
4022;BME280;2025;48.260;16.432;2023-04-28T00:14:50;100260.66;;;4.10;74.08
4022;BME280;2025;48.260;16.432;2023-04-28T00:17:17;100261.69;;;4.08;73.82
4022;BME280;2025;48.260;16.432;2023-04-28T00:19:44;100257.69;;;4.04;74.09
4022;BME280;2025;48.260;16.432;2023-04-28T00:22:11;100259.66;;;4.00;74.13
4022;BME280;2025;48.260;16.432;2023-04-28T00:24:38;100259.44;;;3.92;74.81
4022;BME280;2025;48.260;16.432;2023-04-28T00:27:07;100258.00;;;3.88;74.69
4022;BME280;2025;48.260;16.432;2023-04-28T00:29:35;100255.63;;;3.85;75.24
4022;BME280;2025;48.260;16.432;2023-04-28T00:32:02;100258.91;;;3.75;75.56
4022;BME280;2025;48.260;16.432;2023-04-28T00:34:31;100251.75;;;3.66;75.62
4022;BME280;2025;48.260;16.432;2023-04-28T00:36:58;100253.31;;;3.69;75.59
4022;BME280;2025;48.260;16.432;2023-04-28T00:39:26;100251.88;;;3.65;76.01
4022;BME280;2025;48.260;16.432;2023-04-28T00:41:52;100247.47;;;3.65;75.79
4022;BME280;2025;48.260;16.432;2023-04-28T00:44:21;100246.56;;;3.66;76.12
4022;BME280;2025;48.260;16.432;2023-04-28T00:46:48;100250.38;;;3.49;76.22
4022;BME280;2025;48.260;16.432;2023-04-28T00:49:15;100256.53;;;3.48;79.23
4022;BME280;2025;48.260;16.432;2023-04-28T00:51:42;100247.31;;;3.55;78.68
4022;BME280;2025;48.260;16.432;2023-04-28T00:54:12;100254.09;;;3.58;78.00
4022;BME280;2025;48.260;16.432;2023-04-28T00:56:39;100250.88;;;3.54;78.19
4022;BME280;2025;48.260;16.432;2023-04-28T00:59:06;100235.13;;;3.56;77.63
4022;BME280;2025;48.260;16.432;2023-04-28T01:01:35;100244.38;;;3.60;77.46
4022;BME280;2025;48.260;16.432;2023-04-28T01:04:02;100241.06;;;3.58;77.29
4022;BME280;2025;48.260;16.432;2023-04-28T01:06:29;100243.75;;;3.56;76.57
4022;BME280;2025;48.260;16.432;2023-04-28T01:08:57;100238.34;;;3.59;76.46
4022;BME280;2025;48.260;16.432;2023-04-28T01:11:24;100244.50;;;3.58;76.59
4022;BME280;2025;48.260;16.432;2023-04-28T01:13:51;100244.63;;;3.57;76.50
4022;BME280;2025;48.260;16.432;2023-04-28T01:16:18;100236.56;;;3.60;76.72
4022;BME280;2025;48.260;16.432;2023-04-28T01:18:47;100243.22;;;3.64;76.30
4022;BME280;2025;48.260;16.432;2023-04-28T01:21:14;100246.66;;;3.65;76.19
4022;BME280;2025;48.260;16.432;2023-04-28T01:23:54;100239.91;;;3.62;76.46
4022;BME280;2025;48.260;16.432;2023-04-28T01:26:21;100236.34;;;3.63;76.25
4022;BME280;2025;48.260;16.432;2023-04-28T01:28:48;100244.28;;;3.62;76.16
4022;BME280;2025;48.260;16.432;2023-04-28T01:31:15;100228.03;;;3.58;76.40
4022;BME280;2025;48.260;16.432;2023-04-28T01:33:42;100233.16;;;3.59;76.53
4022;BME280;2025;48.260;16.432;2023-04-28T01:36:09;100232.41;;;3.57;76.23
4022;BME280;2025;48.260;16.432;2023-04-28T01:38:36;100221.63;;;3.51;77.04
4022;BME280;2025;48.260;16.432;2023-04-28T01:41:05;100228.59;;;3.50;76.43
4022;BME280;2025;48.260;16.432;2023-04-28T01:43:32;100223.50;;;3.49;76.20
4022;BME280;2025;48.260;16.432;2023-04-28T01:45:59;100217.56;;;3.47;76.24
4022;BME280;2025;48.260;16.432;2023-04-28T01:48:27;100223.59;;;3.47;76.33
4022;BME280;2025;48.260;16.432;2023-04-28T01:50:54;100219.97;;;3.50;76.15
4022;BME280;2025;48.260;16.432;2023-04-28T01:53:21;100213.47;;;3.55;75.94
4022;BME280;2025;48.260;16.432;2023-04-28T01:55:48;100226.53;;;3.43;76.36
4022;BME280;2025;48.260;16.432;2023-04-28T01:58:16;100229.72;;;3.35;76.43
4022;BME280;2025;48.260;16.432;2023-04-28T02:00:43;100235.97;;;3.32;76.50
4022;BME280;2025;48.260;16.432;2023-04-28T02:03:10;100230.16;;;3.29;77.06
4022;BME280;2025;48.260;16.432;2023-04-28T02:05:37;100224.31;;;3.38;76.49
4022;BME280;2025;48.260;16.432;2023-04-28T02:08:04;100226.28;;;3.34;77.50
4022;BME280;2025;48.260;16.432;2023-04-28T02:10:31;100229.31;;;3.28;78.44
4022;BME280;2025;48.260;16.432;2023-04-28T02:12:58;100236.31;;;3.28;77.90
4022;BME280;2025;48.260;16.432;2023-04-28T02:15:26;100226.22;;;3.23;77.76
4022;BME280;2025;48.260;16.432;2023-04-28T02:17:53;100220.94;;;3.12;77.88
4022;BME280;2025;48.260;16.432;2023-04-28T02:20:20;100232.00;;;3.03;78.35
4022;BME280;2025;48.260;16.432;2023-04-28T02:22:47;100224.22;;;3.03;78.06
4022;BME280;2025;48.260;16.432;2023-04-28T02:25:14;100233.19;;;2.99;78.66
4022;BME280;2025;48.260;16.432;2023-04-28T02:27:41;100218.50;;;2.98;78.82
4022;BME280;2025;48.260;16.432;2023-04-28T02:30:08;100222.13;;;3.08;78.06
4022;BME280;2025;48.260;16.432;2023-04-28T02:32:37;100221.00;;;2.99;78.81
4022;BME280;2025;48.260;16.432;2023-04-28T02:35:04;100223.72;;;2.98;78.63
4022;BME280;2025;48.260;16.432;2023-04-28T02:37:31;100223.72;;;2.98;78.62
4022;BME280;2025;48.260;16.432;2023-04-28T02:39:58;100231.34;;;2.88;78.79
4022;BME280;2025;48.260;16.432;2023-04-28T02:42:25;100222.63;;;2.76;79.10
4022;BME280;2025;48.260;16.432;2023-04-28T02:44:52;100219.06;;;2.77;79.39
4022;BME280;2025;48.260;16.432;2023-04-28T02:47:19;100225.63;;;2.83;78.90
4022;BME280;2025;48.260;16.432;2023-04-28T02:49:48;100228.13;;;2.84;79.05
4022;BME280;2025;48.260;16.432;2023-04-28T02:52:15;100230.63;;;2.86;78.93
4022;BME280;2025;48.260;16.432;2023-04-28T02:54:42;100227.59;;;2.79;79.64
4022;BME280;2025;48.260;16.432;2023-04-28T02:57:13;100218.25;;;2.77;79.46
4022;BME280;2025;48.260;16.432;2023-04-28T02:59:40;100216.69;;;2.74;79.68
4022;BME280;2025;48.260;16.432;2023-04-28T03:02:07;100209.13;;;2.71;79.86
4022;BME280;2025;48.260;16.432;2023-04-28T03:04:34;100214.09;;;2.74;79.69
4022;BME280;2025;48.260;16.432;2023-04-28T03:07:02;100207.34;;;2.71;79.67
4022;BME280;2025;48.260;16.432;2023-04-28T03:09:29;100201.50;;;2.68;79.66
4022;BME280;2025;48.260;16.432;2023-04-28T03:11:56;100202.56;;;2.65;79.59
4022;BME280;2025;48.260;16.432;2023-04-28T03:14:23;100198.63;;;2.60;79.80
4022;BME280;2025;48.260;16.432;2023-04-28T03:16:50;100199.56;;;2.59;79.60
4022;BME280;2025;48.260;16.432;2023-04-28T03:19:17;100198.72;;;2.58;79.64
4022;BME280;2025;48.260;16.432;2023-04-28T03:21:44;100190.84;;;2.60;79.41
4022;BME280;2025;48.260;16.432;2023-04-28T03:24:13;100199.56;;;2.59;79.89
4022;BME280;2025;48.260;16.432;2023-04-28T03:26:40;100190.59;;;2.63;79.65
4022;BME280;2025;48.260;16.432;2023-04-28T03:29:07;100199.53;;;2.71;79.60
4022;BME280;2025;48.260;16.432;2023-04-28T03:31:34;100190.59;;;2.63;79.99
4022;BME280;2025;48.260;16.432;2023-04-28T03:34:01;100193.75;;;2.55;80.23
4022;BME280;2025;48.260;16.432;2023-04-28T03:36:28;100199.28;;;2.50;80.14
4022;BME280;2025;48.260;16.432;2023-04-28T03:38:56;100200.63;;;2.43;80.16
4022;BME280;2025;48.260;16.432;2023-04-28T03:41:24;100194.63;;;2.43;80.10
4022;BME280;2025;48.260;16.432;2023-04-28T03:43:51;100198.03;;;2.43;80.48
4022;BME280;2025;48.260;16.432;2023-04-28T03:46:18;100195.34;;;2.45;80.12
4022;BME280;2025;48.260;16.432;2023-04-28T03:48:45;100194.06;;;2.38;80.21
4022;BME280;2025;48.260;16.432;2023-04-28T03:51:12;100196.34;;;2.42;80.20
4022;BME280;2025;48.260;16.432;2023-04-28T03:53:39;100197.09;;;2.44;80.23
4022;BME280;2025;48.260;16.432;2023-04-28T03:56:06;100191.16;;;2.42;80.37
4022;BME280;2025;48.260;16.432;2023-04-28T03:58:35;100194.53;;;2.31;80.42
4022;BME280;2025;48.260;16.432;2023-04-28T04:01:02;100200.53;;;2.32;80.54
4022;BME280;2025;48.260;16.432;2023-04-28T04:03:29;100194.81;;;2.40;80.48
4022;BME280;2025;48.260;16.432;2023-04-28T04:05:57;100205.63;;;2.46;80.36
4022;BME280;2025;48.260;16.432;2023-04-28T04:08:24;100202.16;;;2.71;79.54
4022;BME280;2025;48.260;16.432;2023-04-28T04:10:51;100205.88;;;2.80;79.50
4022;BME280;2025;48.260;16.432;2023-04-28T04:13:19;100199.81;;;2.80;79.66
4022;BME280;2025;48.260;16.432;2023-04-28T04:15:47;100206.47;;;2.84;80.17
4022;BME280;2025;48.260;16.432;2023-04-28T04:18:17;100198.34;;;2.88;80.42
4022;BME280;2025;48.260;16.432;2023-04-28T04:20:44;100201.44;;;2.93;80.53
4022;BME280;2025;48.260;16.432;2023-04-28T04:23:11;100202.66;;;3.01;80.47
4022;BME280;2025;48.260;16.432;2023-04-28T04:25:38;100199.53;;;3.08;80.75
4022;BME280;2025;48.260;16.432;2023-04-28T04:28:05;100201.47;;;3.17;80.12
4022;BME280;2025;48.260;16.432;2023-04-28T04:30:32;100194.56;;;3.29;79.71
4022;BME280;2025;48.260;16.432;2023-04-28T04:33:00;100200.63;;;3.41;79.90
4022;BME280;2025;48.260;16.432;2023-04-28T04:35:27;100195.25;;;3.55;78.84
4022;BME280;2025;48.260;16.432;2023-04-28T04:37:54;100194.22;;;3.69;78.48
4022;BME280;2025;48.260;16.432;2023-04-28T04:40:21;100192.38;;;3.83;78.90
4022;BME280;2025;48.260;16.432;2023-04-28T04:42:48;100183.63;;;3.95;78.32
4022;BME280;2025;48.260;16.432;2023-04-28T04:45:15;100183.28;;;4.11;78.03
4022;BME280;2025;48.260;16.432;2023-04-28T04:47:42;100185.19;;;4.31;77.49
4022;BME280;2025;48.260;16.432;2023-04-28T04:50:11;100183.06;;;4.48;75.31
4022;BME280;2025;48.260;16.432;2023-04-28T04:52:38;100181.22;;;4.71;74.33
4022;BME280;2025;48.260;16.432;2023-04-28T04:55:06;100173.38;;;4.93;73.45
4022;BME280;2025;48.260;16.432;2023-04-28T04:57:35;100175.47;;;5.11;73.16
4022;BME280;2025;48.260;16.432;2023-04-28T05:00:03;100174.66;;;5.31;70.71
4022;BME280;2025;48.260;16.432;2023-04-28T05:02:30;100163.94;;;5.45;71.21
4022;BME280;2025;48.260;16.432;2023-04-28T05:04:57;100171.13;;;5.74;67.63
4022;BME280;2025;48.260;16.432;2023-04-28T05:07:25;100166.34;;;5.79;67.26
4022;BME280;2025;48.260;16.432;2023-04-28T05:09:52;100170.50;;;6.03;66.43
4022;BME280;2025;48.260;16.432;2023-04-28T05:12:19;100165.22;;;6.24;65.56
4022;BME280;2025;48.260;16.432;2023-04-28T05:14:46;100162.13;;;6.40;64.43
4022;BME280;2025;48.260;16.432;2023-04-28T05:17:13;100167.41;;;6.49;66.02
4022;BME280;2025;48.260;16.432;2023-04-28T05:19:40;100168.13;;;6.61;64.75
4022;BME280;2025;48.260;16.432;2023-04-28T05:22:07;100175.88;;;6.72;65.28
4022;BME280;2025;48.260;16.432;2023-04-28T05:24:35;100166.38;;;6.81;62.79
4022;BME280;2025;48.260;16.432;2023-04-28T05:27:02;100160.19;;;6.92;62.91
4022;BME280;2025;48.260;16.432;2023-04-28T05:29:29;100163.50;;;7.04;62.13
4022;BME280;2025;48.260;16.432;2023-04-28T05:31:56;100160.34;;;7.20;62.00
4022;BME280;2025;48.260;16.432;2023-04-28T05:34:24;100156.22;;;7.36;62.23
4022;BME280;2025;48.260;16.432;2023-04-28T05:36:51;100159.53;;;7.38;61.01
4022;BME280;2025;48.260;16.432;2023-04-28T05:39:18;100154.72;;;7.53;61.90
4022;BME280;2025;48.260;16.432;2023-04-28T05:41:46;100148.63;;;7.63;62.72
4022;BME280;2025;48.260;16.432;2023-04-28T05:44:13;100150.50;;;7.80;60.32
4022;BME280;2025;48.260;16.432;2023-04-28T05:46:40;100157.66;;;7.88;59.81
4022;BME280;2025;48.260;16.432;2023-04-28T05:49:08;100154.22;;;7.87;60.04
4022;BME280;2025;48.260;16.432;2023-04-28T05:51:35;100159.19;;;7.90;59.63
4022;BME280;2025;48.260;16.432;2023-04-28T05:54:03;100156.56;;;7.90;59.58
4022;BME280;2025;48.260;16.432;2023-04-28T05:56:30;100158.09;;;7.93;59.55
4022;BME280;2025;48.260;16.432;2023-04-28T05:58:58;100143.94;;;8.03;59.76
4022;BME280;2025;48.260;16.432;2023-04-28T06:01:28;100142.97;;;8.14;59.60
4022;BME280;2025;48.260;16.432;2023-04-28T06:03:55;100151.94;;;8.12;59.01
4022;BME280;2025;48.260;16.432;2023-04-28T06:06:23;100153.53;;;8.22;59.58
4022;BME280;2025;48.260;16.432;2023-04-28T06:08:52;100150.22;;;8.30;59.06
4022;BME280;2025;48.260;16.432;2023-04-28T06:11:19;100156.81;;;8.44;59.19
4022;BME280;2025;48.260;16.432;2023-04-28T06:13:47;100147.78;;;8.56;58.79
4022;BME280;2025;48.260;16.432;2023-04-28T06:16:15;100145.19;;;8.74;58.38
4022;BME280;2025;48.260;16.432;2023-04-28T06:18:43;100138.75;;;8.86;57.60
4022;BME280;2025;48.260;16.432;2023-04-28T06:21:10;100144.16;;;9.03;57.89
4022;BME280;2025;48.260;16.432;2023-04-28T06:23:37;100136.88;;;9.15;59.03
4022;BME280;2025;48.260;16.432;2023-04-28T06:26:05;100137.16;;;9.29;57.22
4022;BME280;2025;48.260;16.432;2023-04-28T06:28:32;100132.47;;;9.59;55.64
4022;BME280;2025;48.260;16.432;2023-04-28T06:30:59;100128.03;;;9.86;54.44
4022;BME280;2025;48.260;16.432;2023-04-28T06:33:27;100125.69;;;10.09;54.04
4022;BME280;2025;48.260;16.432;2023-04-28T06:35:55;100128.50;;;10.07;52.89
4022;BME280;2025;48.260;16.432;2023-04-28T06:38:21;100134.94;;;10.13;53.45
4022;BME280;2025;48.260;16.432;2023-04-28T06:40:48;100129.53;;;10.23;51.64
4022;BME280;2025;48.260;16.432;2023-04-28T06:43:16;100132.69;;;10.26;50.88
4022;BME280;2025;48.260;16.432;2023-04-28T06:45:43;100117.81;;;10.43;51.68
4022;BME280;2025;48.260;16.432;2023-04-28T06:48:10;100118.69;;;10.60;50.16
4022;BME280;2025;48.260;16.432;2023-04-28T06:50:38;100113.31;;;10.78;49.51
4022;BME280;2025;48.260;16.432;2023-04-28T06:53:05;100103.59;;;10.79;50.35
4022;BME280;2025;48.260;16.432;2023-04-28T06:55:33;100101.47;;;10.82;49.32
4022;BME280;2025;48.260;16.432;2023-04-28T06:58:00;100097.19;;;10.89;50.09
4022;BME280;2025;48.260;16.432;2023-04-28T07:00:27;100099.19;;;11.04;49.29
4022;BME280;2025;48.260;16.432;2023-04-28T07:02:54;100089.13;;;10.91;50.62
4022;BME280;2025;48.260;16.432;2023-04-28T07:05:21;100089.97;;;11.08;49.78
4022;BME280;2025;48.260;16.432;2023-04-28T07:07:49;100084.19;;;11.21;49.77
4022;BME280;2025;48.260;16.432;2023-04-28T07:10:16;100088.97;;;11.25;50.17
4022;BME280;2025;48.260;16.432;2023-04-28T07:12:43;100093.06;;;11.28;48.86
4022;BME280;2025;48.260;16.432;2023-04-28T07:15:11;100081.72;;;11.19;49.70
4022;BME280;2025;48.260;16.432;2023-04-28T07:17:38;100079.25;;;11.17;49.09
4022;BME280;2025;48.260;16.432;2023-04-28T07:20:06;100076.75;;;11.16;50.05
4022;BME280;2025;48.260;16.432;2023-04-28T07:22:33;100068.03;;;11.15;50.09
4022;BME280;2025;48.260;16.432;2023-04-28T07:25:01;100069.84;;;11.07;49.88
4022;BME280;2025;48.260;16.432;2023-04-28T07:27:29;100073.16;;;11.17;49.10
4022;BME280;2025;48.260;16.432;2023-04-28T07:29:55;100084.50;;;11.26;49.58
4022;BME280;2025;48.260;16.432;2023-04-28T07:32:22;100089.28;;;11.38;49.45
4022;BME280;2025;48.260;16.432;2023-04-28T07:34:49;100082.03;;;11.41;48.73
4022;BME280;2025;48.260;16.432;2023-04-28T07:37:17;100079.06;;;11.44;49.96
4022;BME280;2025;48.260;16.432;2023-04-28T07:39:44;100081.34;;;11.55;48.82
4022;BME280;2025;48.260;16.432;2023-04-28T07:42:13;100071.78;;;11.70;49.50
4022;BME280;2025;48.260;16.432;2023-04-28T07:44:40;100068.44;;;11.85;52.02
4022;BME280;2025;48.260;16.432;2023-04-28T07:47:07;100066.59;;;12.01;49.39
4022;BME280;2025;48.260;16.432;2023-04-28T07:49:34;100061.97;;;11.95;49.26
4022;BME280;2025;48.260;16.432;2023-04-28T07:52:01;100061.91;;;12.12;48.29
4022;BME280;2025;48.260;16.432;2023-04-28T07:54:28;100062.03;;;12.27;49.43
4022;BME280;2025;48.260;16.432;2023-04-28T07:56:55;100063.28;;;12.39;48.73
4022;BME280;2025;48.260;16.432;2023-04-28T07:59:25;100063.13;;;12.40;47.83
4022;BME280;2025;48.260;16.432;2023-04-28T08:01:52;100085.44;;;12.61;49.14
4022;BME280;2025;48.260;16.432;2023-04-28T08:04:18;100084.06;;;12.73;49.50
4022;BME280;2025;48.260;16.432;2023-04-28T08:06:45;100073.94;;;13.00;48.13
4022;BME280;2025;48.260;16.432;2023-04-28T08:09:12;100077.00;;;13.12;47.23
4022;BME280;2025;48.260;16.432;2023-04-28T08:11:39;100074.88;;;13.30;46.10
4022;BME280;2025;48.260;16.432;2023-04-28T08:14:06;100073.25;;;13.29;46.46
4022;BME280;2025;48.260;16.432;2023-04-28T08:16:35;100068.34;;;13.18;46.26
4022;BME280;2025;48.260;16.432;2023-04-28T08:19:04;100065.53;;;13.19;47.56
4022;BME280;2025;48.260;16.432;2023-04-28T08:21:31;100060.13;;;13.36;46.56
4022;BME280;2025;48.260;16.432;2023-04-28T08:23:58;100050.47;;;13.43;46.57
4022;BME280;2025;48.260;16.432;2023-04-28T08:26:26;100050.38;;;13.51;47.65
4022;BME280;2025;48.260;16.432;2023-04-28T08:28:53;100040.09;;;13.71;46.22
4022;BME280;2025;48.260;16.432;2023-04-28T08:31:20;100027.91;;;13.91;45.44
4022;BME280;2025;48.260;16.432;2023-04-28T08:33:49;100025.66;;;14.03;45.20
4022;BME280;2025;48.260;16.432;2023-04-28T08:36:16;100023.94;;;14.17;47.57
4022;BME280;2025;48.260;16.432;2023-04-28T08:38:44;100013.72;;;14.29;45.28
4022;BME280;2025;48.260;16.432;2023-04-28T08:41:11;100007.72;;;14.42;45.09
4022;BME280;2025;48.260;16.432;2023-04-28T08:43:39;100015.66;;;14.57;45.32
4022;BME280;2025;48.260;16.432;2023-04-28T08:46:08;100011.69;;;14.67;43.87
4022;BME280;2025;48.260;16.432;2023-04-28T08:48:40;100009.91;;;14.38;45.17
4022;BME280;2025;48.260;16.432;2023-04-28T08:51:13;100005.34;;;14.47;44.67
4022;BME280;2025;48.260;16.432;2023-04-28T08:53:43;100007.59;;;14.65;46.01
4022;BME280;2025;48.260;16.432;2023-04-28T08:56:10;100004.75;;;14.88;43.65
4022;BME280;2025;48.260;16.432;2023-04-28T08:58:41;99996.22;;;15.21;42.54
4022;BME280;2025;48.260;16.432;2023-04-28T09:01:08;100001.22;;;15.09;42.66
4022;BME280;2025;48.260;16.432;2023-04-28T09:03:35;99989.06;;;15.21;42.11
4022;BME280;2025;48.260;16.432;2023-04-28T09:06:02;99989.78;;;15.36;42.49
4022;BME280;2025;48.260;16.432;2023-04-28T09:08:30;99998.75;;;15.35;43.51
4022;BME280;2025;48.260;16.432;2023-04-28T09:11:06;100000.16;;;15.66;41.72
4022;BME280;2025;48.260;16.432;2023-04-28T09:13:34;99994.97;;;15.51;41.58
4022;BME280;2025;48.260;16.432;2023-04-28T09:16:01;99988.47;;;15.54;41.62
4022;BME280;2025;48.260;16.432;2023-04-28T09:18:29;99988.69;;;15.59;42.77
4022;BME280;2025;48.260;16.432;2023-04-28T09:21:04;99992.81;;;15.27;42.12
4022;BME280;2025;48.260;16.432;2023-04-28T09:23:34;99975.84;;;15.28;43.17
4022;BME280;2025;48.260;16.432;2023-04-28T09:26:02;99973.03;;;15.71;42.62
4022;BME280;2025;48.260;16.432;2023-04-28T09:28:31;99979.44;;;15.83;41.42
4022;BME280;2025;48.260;16.432;2023-04-28T09:30:58;99980.72;;;15.59;41.59
4022;BME280;2025;48.260;16.432;2023-04-28T09:33:25;99974.28;;;15.75;41.67
4022;BME280;2025;48.260;16.432;2023-04-28T09:35:53;99968.03;;;15.89;44.70
4022;BME280;2025;48.260;16.432;2023-04-28T09:38:21;99963.38;;;16.05;41.32
4022;BME280;2025;48.260;16.432;2023-04-28T09:40:54;99960.06;;;15.96;40.83
4022;BME280;2025;48.260;16.432;2023-04-28T09:43:26;99944.97;;;15.96;42.16
4022;BME280;2025;48.260;16.432;2023-04-28T09:45:54;99945.84;;;16.17;41.86
4022;BME280;2025;48.260;16.432;2023-04-28T09:48:29;99943.81;;;16.26;43.26
4022;BME280;2025;48.260;16.432;2023-04-28T09:50:57;99935.88;;;16.32;43.28
4022;BME280;2025;48.260;16.432;2023-04-28T09:53:25;99925.47;;;16.51;40.75
4022;BME280;2025;48.260;16.432;2023-04-28T09:55:54;99920.34;;;16.69;39.81
4022;BME280;2025;48.260;16.432;2023-04-28T09:58:25;99928.28;;;16.42;41.92
4022;BME280;2025;48.260;16.432;2023-04-28T10:00:52;99924.00;;;16.55;40.18
4022;BME280;2025;48.260;16.432;2023-04-28T10:03:21;99916.25;;;16.47;40.19
4022;BME280;2025;48.260;16.432;2023-04-28T10:05:50;99904.97;;;16.38;41.62
4022;BME280;2025;48.260;16.432;2023-04-28T10:08:18;99903.56;;;16.69;41.03
4022;BME280;2025;48.260;16.432;2023-04-28T10:10:46;99903.34;;;16.77;40.85
4022;BME280;2025;48.260;16.432;2023-04-28T10:13:16;99897.22;;;16.90;40.33
4022;BME280;2025;48.260;16.432;2023-04-28T10:15:44;99901.09;;;17.07;39.18
4022;BME280;2025;48.260;16.432;2023-04-28T10:18:12;99897.59;;;17.13;39.42
4022;BME280;2025;48.260;16.432;2023-04-28T10:20:41;99897.78;;;17.18;39.58
4022;BME280;2025;48.260;16.432;2023-04-28T10:23:26;99882.28;;;17.09;39.87
4022;BME280;2025;48.260;16.432;2023-04-28T10:25:57;99882.44;;;17.20;38.82
4022;BME280;2025;48.260;16.432;2023-04-28T10:28:26;99882.22;;;17.22;38.99
4022;BME280;2025;48.260;16.432;2023-04-28T10:31:08;99877.66;;;17.36;39.43
4022;BME280;2025;48.260;16.432;2023-04-28T10:33:36;99872.75;;;17.39;39.10
4022;BME280;2025;48.260;16.432;2023-04-28T10:36:04;99874.31;;;17.60;39.91
4022;BME280;2025;48.260;16.432;2023-04-28T10:38:32;99863.50;;;17.94;39.22
4022;BME280;2025;48.260;16.432;2023-04-28T10:40:59;99858.59;;;18.16;37.17
4022;BME280;2025;48.260;16.432;2023-04-28T10:43:36;99856.00;;;18.34;38.83
4022;BME280;2025;48.260;16.432;2023-04-28T10:46:06;99856.72;;;18.48;37.09
4022;BME280;2025;48.260;16.432;2023-04-28T10:48:55;99852.69;;;18.39;36.79
4022;BME280;2025;48.260;16.432;2023-04-28T10:51:32;99856.09;;;17.96;36.78
4022;BME280;2025;48.260;16.432;2023-04-28T10:54:17;99849.31;;;18.50;36.20
4022;BME280;2025;48.260;16.432;2023-04-28T10:57:19;99856.09;;;18.71;39.92
4022;BME280;2025;48.260;16.432;2023-04-28T10:59:48;99844.50;;;19.21;35.26
4022;BME280;2025;48.260;16.432;2023-04-28T11:02:38;99829.53;;;19.38;36.27
4022;BME280;2025;48.260;16.432;2023-04-28T11:05:12;99836.41;;;19.46;35.09
4022;BME280;2025;48.260;16.432;2023-04-28T11:07:39;99836.00;;;19.12;35.80
4022;BME280;2025;48.260;16.432;2023-04-28T11:10:06;99845.78;;;19.18;35.36
4022;BME280;2025;48.260;16.432;2023-04-28T11:12:33;99835.16;;;19.30;35.04
4022;BME280;2025;48.260;16.432;2023-04-28T11:15:12;99833.75;;;19.76;33.99
4022;BME280;2025;48.260;16.432;2023-04-28T11:17:40;99815.06;;;19.76;34.54
4022;BME280;2025;48.260;16.432;2023-04-28T11:20:11;99809.16;;;19.86;34.60
4022;BME280;2025;48.260;16.432;2023-04-28T11:22:40;99805.38;;;19.93;36.13
4022;BME280;2025;48.260;16.432;2023-04-28T11:25:07;99807.47;;;20.03;34.75
4022;BME280;2025;48.260;16.432;2023-04-28T11:27:34;99796.09;;;20.08;34.74
4022;BME280;2025;48.260;16.432;2023-04-28T11:30:02;99792.34;;;19.97;36.79
4022;BME280;2025;48.260;16.432;2023-04-28T11:32:33;99782.22;;;19.87;33.68
4022;BME280;2025;48.260;16.432;2023-04-28T11:35:01;99777.31;;;19.72;34.68
4022;BME280;2025;48.260;16.432;2023-04-28T11:37:33;99778.47;;;19.46;34.62
4022;BME280;2025;48.260;16.432;2023-04-28T11:40:09;99774.88;;;19.52;34.39
4022;BME280;2025;48.260;16.432;2023-04-28T11:42:46;99768.16;;;19.80;34.43
4022;BME280;2025;48.260;16.432;2023-04-28T11:45:13;99764.00;;;20.08;35.82
4022;BME280;2025;48.260;16.432;2023-04-28T11:47:41;99765.97;;;19.89;34.39
4022;BME280;2025;48.260;16.432;2023-04-28T11:50:08;99758.38;;;19.44;34.87
4022;BME280;2025;48.260;16.432;2023-04-28T11:52:36;99758.03;;;19.40;35.75
4022;BME280;2025;48.260;16.432;2023-04-28T11:55:16;99754.25;;;19.29;35.22
4022;BME280;2025;48.260;16.432;2023-04-28T11:57:43;99760.91;;;19.38;35.41
4022;BME280;2025;48.260;16.432;2023-04-28T12:00:14;99762.69;;;19.45;35.80
4022;BME280;2025;48.260;16.432;2023-04-28T12:02:45;99761.06;;;19.25;35.27
4022;BME280;2025;48.260;16.432;2023-04-28T12:05:12;99755.56;;;19.08;35.32
4022;BME280;2025;48.260;16.432;2023-04-28T12:07:40;99756.75;;;18.75;36.08
4022;BME280;2025;48.260;16.432;2023-04-28T12:10:12;99746.22;;;18.62;36.36
4022;BME280;2025;48.260;16.432;2023-04-28T12:12:39;99755.03;;;18.44;37.60
4022;BME280;2025;48.260;16.432;2023-04-28T12:15:07;99754.97;;;18.51;38.08
4022;BME280;2025;48.260;16.432;2023-04-28T12:17:36;99767.25;;;18.70;37.51
4022;BME280;2025;48.260;16.432;2023-04-28T12:20:07;99777.41;;;18.62;37.54
4022;BME280;2025;48.260;16.432;2023-04-28T12:22:42;99773.47;;;18.46;38.26
4022;BME280;2025;48.260;16.432;2023-04-28T12:25:11;99770.66;;;18.59;37.50
4022;BME280;2025;48.260;16.432;2023-04-28T12:27:39;99773.03;;;18.49;38.22
4022;BME280;2025;48.260;16.432;2023-04-28T12:30:24;99770.88;;;18.39;36.94
4022;BME280;2025;48.260;16.432;2023-04-28T12:32:51;99782.13;;;18.41;37.25
4022;BME280;2025;48.260;16.432;2023-04-28T12:35:22;99780.34;;;18.10;37.93
4022;BME280;2025;48.260;16.432;2023-04-28T12:37:49;99789.00;;;18.05;37.76
4022;BME280;2025;48.260;16.432;2023-04-28T12:40:16;99764.84;;;18.00;37.56
4022;BME280;2025;48.260;16.432;2023-04-28T12:42:44;99766.72;;;18.00;38.81
4022;BME280;2025;48.260;16.432;2023-04-28T12:45:11;99762.41;;;17.99;39.18
4022;BME280;2025;48.260;16.432;2023-04-28T12:47:38;99765.50;;;17.96;38.67
4022;BME280;2025;48.260;16.432;2023-04-28T12:50:06;99766.41;;;17.83;38.87
4022;BME280;2025;48.260;16.432;2023-04-28T12:52:35;99757.66;;;17.69;39.11
4022;BME280;2025;48.260;16.432;2023-04-28T12:55:02;99760.00;;;17.59;38.73
4022;BME280;2025;48.260;16.432;2023-04-28T12:57:29;99756.00;;;17.75;38.25
4022;BME280;2025;48.260;16.432;2023-04-28T12:59:56;99763.84;;;17.69;39.11
4022;BME280;2025;48.260;16.432;2023-04-28T13:02:23;99762.50;;;17.54;40.37
4022;BME280;2025;48.260;16.432;2023-04-28T13:04:50;99764.97;;;17.55;40.73
4022;BME280;2025;48.260;16.432;2023-04-28T13:07:17;99766.78;;;17.55;39.88
4022;BME280;2025;48.260;16.432;2023-04-28T13:09:46;99759.59;;;17.23;41.24
4022;BME280;2025;48.260;16.432;2023-04-28T13:12:13;99759.56;;;17.30;40.00
4022;BME280;2025;48.260;16.432;2023-04-28T13:14:40;99762.91;;;17.12;40.89